sensor_id;sensor_type;location;lat;lon;timestamp;P1;durP1;ratioP1;P2;durP2;ratioP2
6739;SDS011;3407;49.882;10.920;2022-11-30T00:01:10;12.03;;;8.80;;
6739;SDS011;3407;49.882;10.920;2022-11-30T00:06:11;14.27;;;9.10;;
6739;SDS011;3407;49.882;10.920;2022-11-30T00:11:12;10.53;;;7.97;;
6739;SDS011;3407;49.882;10.920;2022-11-30T00:16:11;11.07;;;8.37;;
6739;SDS011;3407;49.882;10.920;2022-11-30T00:21:09;10.27;;;6.80;;
6739;SDS011;3407;49.882;10.920;2022-11-30T00:26:08;11.63;;;7.70;;
6739;SDS011;3407;49.882;10.920;2022-11-30T00:31:06;8.73;;;7.40;;
6739;SDS011;3407;49.882;10.920;2022-11-30T00:36:09;9.10;;;6.80;;
6739;SDS011;3407;49.882;10.920;2022-11-30T00:41:07;7.80;;;6.87;;
6739;SDS011;3407;49.882;10.920;2022-11-30T00:46:02;12.37;;;6.80;;
6739;SDS011;3407;49.882;10.920;2022-11-30T00:50:58;9.00;;;6.43;;
6739;SDS011;3407;49.882;10.920;2022-11-30T00:55:54;9.43;;;6.63;;
6739;SDS011;3407;49.882;10.920;2022-11-30T01:00:49;8.57;;;7.37;;
6739;SDS011;3407;49.882;10.920;2022-11-30T01:05:45;10.53;;;7.13;;
6739;SDS011;3407;49.882;10.920;2022-11-30T01:10:41;7.57;;;6.30;;
6739;SDS011;3407;49.882;10.920;2022-11-30T01:15:38;9.30;;;6.80;;
6739;SDS011;3407;49.882;10.920;2022-11-30T01:20:38;8.70;;;6.87;;
6739;SDS011;3407;49.882;10.920;2022-11-30T01:25:35;8.70;;;6.97;;
6739;SDS011;3407;49.882;10.920;2022-11-30T01:30:31;10.17;;;7.87;;
6739;SDS011;3407;49.882;10.920;2022-11-30T01:35:26;13.03;;;8.27;;
6739;SDS011;3407;49.882;10.920;2022-11-30T01:40:22;10.10;;;7.77;;
6739;SDS011;3407;49.882;10.920;2022-11-30T01:45:17;10.83;;;7.70;;
6739;SDS011;3407;49.882;10.920;2022-11-30T01:50:15;11.43;;;8.03;;
6739;SDS011;3407;49.882;10.920;2022-11-30T01:55:21;10.80;;;8.00;;
6739;SDS011;3407;49.882;10.920;2022-11-30T02:00:27;9.87;;;7.97;;
6739;SDS011;3407;49.882;10.920;2022-11-30T02:05:24;8.83;;;6.87;;
6739;SDS011;3407;49.882;10.920;2022-11-30T02:10:22;13.03;;;7.57;;
6739;SDS011;3407;49.882;10.920;2022-11-30T02:15:20;11.37;;;7.00;;
6739;SDS011;3407;49.882;10.920;2022-11-30T02:31:07;12.77;;;7.13;;
6739;SDS011;3407;49.882;10.920;2022-11-30T02:36:06;17.33;;;10.40;;
6739;SDS011;3407;49.882;10.920;2022-11-30T02:41:03;11.23;;;8.43;;
6739;SDS011;3407;49.882;10.920;2022-11-30T02:46:05;10.73;;;8.33;;
6739;SDS011;3407;49.882;10.920;2022-11-30T02:51:13;12.93;;;8.20;;
6739;SDS011;3407;49.882;10.920;2022-11-30T02:56:12;11.03;;;8.30;;
6739;SDS011;3407;49.882;10.920;2022-11-30T03:01:08;10.63;;;7.93;;
6739;SDS011;3407;49.882;10.920;2022-11-30T03:06:03;9.13;;;7.00;;
6739;SDS011;3407;49.882;10.920;2022-11-30T03:11:03;10.87;;;7.03;;
6739;SDS011;3407;49.882;10.920;2022-11-30T03:16:06;11.50;;;7.90;;
6739;SDS011;3407;49.882;10.920;2022-11-30T03:21:06;9.80;;;7.53;;
6739;SDS011;3407;49.882;10.920;2022-11-30T03:26:03;13.43;;;8.43;;
6739;SDS011;3407;49.882;10.920;2022-11-30T03:31:00;10.43;;;8.47;;
6739;SDS011;3407;49.882;10.920;2022-11-30T03:36:00;8.93;;;6.60;;
6739;SDS011;3407;49.882;10.920;2022-11-30T03:41:03;9.93;;;8.17;;
6739;SDS011;3407;49.882;10.920;2022-11-30T03:46:01;9.63;;;7.43;;
6739;SDS011;3407;49.882;10.920;2022-11-30T03:50:57;11.40;;;8.33;;
6739;SDS011;3407;49.882;10.920;2022-11-30T03:55:53;9.80;;;6.73;;
6739;SDS011;3407;49.882;10.920;2022-11-30T04:06:06;9.10;;;7.40;;
6739;SDS011;3407;49.882;10.920;2022-11-30T04:11:03;8.03;;;6.63;;
6739;SDS011;3407;49.882;10.920;2022-11-30T04:15:59;16.87;;;8.00;;
6739;SDS011;3407;49.882;10.920;2022-11-30T04:20:55;9.47;;;7.57;;
6739;SDS011;3407;49.882;10.920;2022-11-30T04:25:52;12.67;;;8.30;;
6739;SDS011;3407;49.882;10.920;2022-11-30T04:30:47;9.47;;;7.87;;
6739;SDS011;3407;49.882;10.920;2022-11-30T04:35:47;8.03;;;7.20;;
6739;SDS011;3407;49.882;10.920;2022-11-30T04:40:45;10.30;;;7.93;;
6739;SDS011;3407;49.882;10.920;2022-11-30T04:45:41;8.93;;;7.30;;
6739;SDS011;3407;49.882;10.920;2022-11-30T04:50:38;12.57;;;7.63;;
6739;SDS011;3407;49.882;10.920;2022-11-30T04:55:34;11.50;;;8.27;;
6739;SDS011;3407;49.882;10.920;2022-11-30T05:00:31;12.97;;;8.30;;
6739;SDS011;3407;49.882;10.920;2022-11-30T05:05:27;13.03;;;8.30;;
6739;SDS011;3407;49.882;10.920;2022-11-30T05:10:22;11.17;;;8.30;;
6739;SDS011;3407;49.882;10.920;2022-11-30T05:20:19;10.30;;;7.73;;
6739;SDS011;3407;49.882;10.920;2022-11-30T05:25:15;11.57;;;8.00;;
6739;SDS011;3407;49.882;10.920;2022-11-30T05:30:10;9.97;;;7.30;;
6739;SDS011;3407;49.882;10.920;2022-11-30T05:35:06;15.60;;;9.27;;
6739;SDS011;3407;49.882;10.920;2022-11-30T05:40:02;12.90;;;7.97;;
6739;SDS011;3407;49.882;10.920;2022-11-30T05:44:58;10.17;;;7.77;;
6739;SDS011;3407;49.882;10.920;2022-11-30T05:49:54;11.43;;;8.37;;
6739;SDS011;3407;49.882;10.920;2022-11-30T05:54:50;11.57;;;7.33;;
6739;SDS011;3407;49.882;10.920;2022-11-30T05:59:45;9.37;;;7.00;;
6739;SDS011;3407;49.882;10.920;2022-11-30T06:04:41;13.93;;;8.20;;
6739;SDS011;3407;49.882;10.920;2022-11-30T06:09:37;11.57;;;7.67;;
6739;SDS011;3407;49.882;10.920;2022-11-30T06:14:33;10.97;;;7.73;;
6739;SDS011;3407;49.882;10.920;2022-11-30T06:19:29;12.57;;;8.77;;
6739;SDS011;3407;49.882;10.920;2022-11-30T06:24:24;12.00;;;8.67;;
6739;SDS011;3407;49.882;10.920;2022-11-30T06:29:20;11.63;;;9.17;;
6739;SDS011;3407;49.882;10.920;2022-11-30T06:34:15;12.80;;;9.10;;
6739;SDS011;3407;49.882;10.920;2022-11-30T06:39:11;14.00;;;9.40;;
6739;SDS011;3407;49.882;10.920;2022-11-30T06:44:07;13.47;;;9.77;;
6739;SDS011;3407;49.882;10.920;2022-11-30T06:49:04;14.90;;;10.60;;
6739;SDS011;3407;49.882;10.920;2022-11-30T06:54:01;13.57;;;8.47;;
6739;SDS011;3407;49.882;10.920;2022-11-30T06:58:57;10.33;;;7.60;;
6739;SDS011;3407;49.882;10.920;2022-11-30T07:03:52;14.60;;;8.77;;
6739;SDS011;3407;49.882;10.920;2022-11-30T07:08:48;11.60;;;7.97;;
6739;SDS011;3407;49.882;10.920;2022-11-30T07:13:43;12.73;;;7.83;;
6739;SDS011;3407;49.882;10.920;2022-11-30T07:18:39;14.37;;;8.13;;
6739;SDS011;3407;49.882;10.920;2022-11-30T07:23:35;12.97;;;9.03;;
6739;SDS011;3407;49.882;10.920;2022-11-30T07:28:49;15.17;;;9.67;;
6739;SDS011;3407;49.882;10.920;2022-11-30T07:33:49;13.13;;;8.53;;
6739;SDS011;3407;49.882;10.920;2022-11-30T07:38:45;14.17;;;8.87;;
6739;SDS011;3407;49.882;10.920;2022-11-30T07:43:42;13.57;;;10.13;;
6739;SDS011;3407;49.882;10.920;2022-11-30T07:48:37;13.80;;;9.03;;
6739;SDS011;3407;49.882;10.920;2022-11-30T07:53:33;13.27;;;9.40;;
6739;SDS011;3407;49.882;10.920;2022-11-30T07:58:29;16.17;;;10.07;;
6739;SDS011;3407;49.882;10.920;2022-11-30T08:03:25;16.27;;;9.33;;
6739;SDS011;3407;49.882;10.920;2022-11-30T08:08:21;14.23;;;9.43;;
6739;SDS011;3407;49.882;10.920;2022-11-30T08:13:16;20.10;;;10.90;;
6739;SDS011;3407;49.882;10.920;2022-11-30T08:18:12;18.70;;;10.83;;
6739;SDS011;3407;49.882;10.920;2022-11-30T08:23:07;20.63;;;11.70;;
6739;SDS011;3407;49.882;10.920;2022-11-30T08:28:03;17.93;;;10.97;;
6739;SDS011;3407;49.882;10.920;2022-11-30T08:32:59;20.93;;;11.63;;
6739;SDS011;3407;49.882;10.920;2022-11-30T08:37:55;18.77;;;11.27;;
6739;SDS011;3407;49.882;10.920;2022-11-30T08:42:50;21.10;;;12.63;;
6739;SDS011;3407;49.882;10.920;2022-11-30T08:47:46;20.30;;;12.60;;
6739;SDS011;3407;49.882;10.920;2022-11-30T08:52:41;18.37;;;11.67;;
6739;SDS011;3407;49.882;10.920;2022-11-30T08:57:37;19.57;;;10.83;;
6739;SDS011;3407;49.882;10.920;2022-11-30T09:02:32;15.30;;;10.70;;
6739;SDS011;3407;49.882;10.920;2022-11-30T09:07:28;18.80;;;10.93;;
6739;SDS011;3407;49.882;10.920;2022-11-30T09:12:23;19.40;;;11.20;;
6739;SDS011;3407;49.882;10.920;2022-11-30T09:17:19;20.47;;;11.93;;
6739;SDS011;3407;49.882;10.920;2022-11-30T09:22:14;23.47;;;13.00;;
6739;SDS011;3407;49.882;10.920;2022-11-30T09:27:10;20.80;;;13.13;;
6739;SDS011;3407;49.882;10.920;2022-11-30T09:32:06;17.07;;;11.83;;
6739;SDS011;3407;49.882;10.920;2022-11-30T09:37:01;21.47;;;12.27;;
6739;SDS011;3407;49.882;10.920;2022-11-30T09:42:04;17.30;;;11.40;;
6739;SDS011;3407;49.882;10.920;2022-11-30T09:52:45;16.17;;;11.77;;
6739;SDS011;3407;49.882;10.920;2022-11-30T09:57:46;20.53;;;11.70;;
6739;SDS011;3407;49.882;10.920;2022-11-30T10:02:47;18.73;;;10.73;;
6739;SDS011;3407;49.882;10.920;2022-11-30T10:08:03;23.13;;;11.57;;
6739;SDS011;3407;49.882;10.920;2022-11-30T10:23:58;24.20;;;12.63;;
6739;SDS011;3407;49.882;10.920;2022-11-30T10:29:17;21.70;;;11.70;;
6739;SDS011;3407;49.882;10.920;2022-11-30T10:34:17;19.63;;;11.27;;
6739;SDS011;3407;49.882;10.920;2022-11-30T10:39:18;16.53;;;10.57;;
6739;SDS011;3407;49.882;10.920;2022-11-30T10:44:23;18.37;;;10.83;;
6739;SDS011;3407;49.882;10.920;2022-11-30T10:49:23;18.83;;;10.80;;
6739;SDS011;3407;49.882;10.920;2022-11-30T10:54:28;20.33;;;11.17;;
6739;SDS011;3407;49.882;10.920;2022-11-30T10:59:26;19.43;;;10.50;;
6739;SDS011;3407;49.882;10.920;2022-11-30T11:04:36;17.30;;;9.43;;
6739;SDS011;3407;49.882;10.920;2022-11-30T11:14:32;19.13;;;10.10;;
6739;SDS011;3407;49.882;10.920;2022-11-30T11:19:39;17.90;;;9.83;;
6739;SDS011;3407;49.882;10.920;2022-11-30T11:24:36;16.17;;;9.23;;
6739;SDS011;3407;49.882;10.920;2022-11-30T11:29:32;18.20;;;10.10;;
6739;SDS011;3407;49.882;10.920;2022-11-30T11:34:33;17.10;;;9.23;;
6739;SDS011;3407;49.882;10.920;2022-11-30T11:39:30;13.67;;;9.07;;
6739;SDS011;3407;49.882;10.920;2022-11-30T11:44:26;18.37;;;9.70;;
6739;SDS011;3407;49.882;10.920;2022-11-30T11:49:34;18.97;;;10.13;;
6739;SDS011;3407;49.882;10.920;2022-11-30T12:00:16;14.27;;;8.97;;
6739;SDS011;3407;49.882;10.920;2022-11-30T12:05:15;14.47;;;9.30;;
6739;SDS011;3407;49.882;10.920;2022-11-30T12:10:24;14.77;;;9.27;;
6739;SDS011;3407;49.882;10.920;2022-11-30T12:15:40;15.23;;;9.00;;
6739;SDS011;3407;49.882;10.920;2022-11-30T12:25:54;15.93;;;9.30;;
6739;SDS011;3407;49.882;10.920;2022-11-30T12:31:14;17.80;;;9.57;;
6739;SDS011;3407;49.882;10.920;2022-11-30T12:57:42;24.27;;;13.37;;
6739;SDS011;3407;49.882;10.920;2022-11-30T13:08:23;19.87;;;9.77;;
6739;SDS011;3407;49.882;10.920;2022-11-30T13:13:24;23.77;;;10.47;;
6739;SDS011;3407;49.882;10.920;2022-11-30T13:18:23;19.10;;;10.60;;
6739;SDS011;3407;49.882;10.920;2022-11-30T13:23:26;16.50;;;9.70;;
6739;SDS011;3407;49.882;10.920;2022-11-30T13:33:41;15.33;;;8.70;;
6739;SDS011;3407;49.882;10.920;2022-11-30T13:44:03;16.37;;;8.53;;
6739;SDS011;3407;49.882;10.920;2022-11-30T14:00:42;15.30;;;9.67;;
6739;SDS011;3407;49.882;10.920;2022-11-30T14:05:25;17.53;;;9.97;;
6739;SDS011;3407;49.882;10.920;2022-11-30T14:10:39;15.03;;;8.77;;
6739;SDS011;3407;49.882;10.920;2022-11-30T14:20:42;16.00;;;10.10;;
6739;SDS011;3407;49.882;10.920;2022-11-30T14:25:46;15.17;;;8.77;;
6739;SDS011;3407;49.882;10.920;2022-11-30T14:30:44;17.57;;;9.77;;
6739;SDS011;3407;49.882;10.920;2022-11-30T14:35:42;17.53;;;9.73;;
6739;SDS011;3407;49.882;10.920;2022-11-30T14:40:38;18.07;;;10.10;;
6739;SDS011;3407;49.882;10.920;2022-11-30T14:45:58;13.93;;;9.07;;
6739;SDS011;3407;49.882;10.920;2022-11-30T14:50:56;18.03;;;9.70;;
6739;SDS011;3407;49.882;10.920;2022-11-30T15:01:18;16.27;;;8.43;;
6739;SDS011;3407;49.882;10.920;2022-11-30T15:06:16;22.73;;;13.37;;
6739;SDS011;3407;49.882;10.920;2022-11-30T15:11:14;15.47;;;9.40;;
6739;SDS011;3407;49.882;10.920;2022-11-30T15:21:20;16.90;;;9.83;;
6739;SDS011;3407;49.882;10.920;2022-11-30T15:26:22;17.23;;;10.20;;
6739;SDS011;3407;49.882;10.920;2022-11-30T15:31:32;16.63;;;10.10;;
6739;SDS011;3407;49.882;10.920;2022-11-30T15:36:36;17.27;;;10.90;;
6739;SDS011;3407;49.882;10.920;2022-11-30T15:41:33;18.83;;;11.50;;
6739;SDS011;3407;49.882;10.920;2022-11-30T15:46:34;16.43;;;10.93;;
6739;SDS011;3407;49.882;10.920;2022-11-30T15:51:38;14.90;;;10.23;;
6739;SDS011;3407;49.882;10.920;2022-11-30T15:56:35;17.57;;;11.07;;
6739;SDS011;3407;49.882;10.920;2022-11-30T16:01:49;17.10;;;9.43;;
6739;SDS011;3407;49.882;10.920;2022-11-30T16:07:15;17.53;;;10.90;;
6739;SDS011;3407;49.882;10.920;2022-11-30T16:12:27;17.77;;;11.13;;
6739;SDS011;3407;49.882;10.920;2022-11-30T16:17:24;15.80;;;10.87;;
6739;SDS011;3407;49.882;10.920;2022-11-30T16:22:21;20.70;;;12.07;;
6739;SDS011;3407;49.882;10.920;2022-11-30T16:27:18;19.43;;;11.13;;
6739;SDS011;3407;49.882;10.920;2022-11-30T16:32:14;21.27;;;12.50;;
6739;SDS011;3407;49.882;10.920;2022-11-30T16:37:10;14.77;;;10.50;;
6739;SDS011;3407;49.882;10.920;2022-11-30T16:42:10;19.23;;;11.70;;
6739;SDS011;3407;49.882;10.920;2022-11-30T16:47:06;17.23;;;10.27;;
6739;SDS011;3407;49.882;10.920;2022-11-30T16:52:02;17.63;;;11.03;;
6739;SDS011;3407;49.882;10.920;2022-11-30T16:56:57;18.03;;;11.30;;
6739;SDS011;3407;49.882;10.920;2022-11-30T17:01:53;16.77;;;10.37;;
6739;SDS011;3407;49.882;10.920;2022-11-30T17:06:48;15.13;;;10.60;;
6739;SDS011;3407;49.882;10.920;2022-11-30T17:11:45;16.50;;;10.37;;
6739;SDS011;3407;49.882;10.920;2022-11-30T17:16:45;17.40;;;11.07;;
6739;SDS011;3407;49.882;10.920;2022-11-30T17:21:40;20.63;;;12.50;;
6739;SDS011;3407;49.882;10.920;2022-11-30T17:26:38;17.63;;;11.07;;
6739;SDS011;3407;49.882;10.920;2022-11-30T17:31:34;15.30;;;10.73;;
6739;SDS011;3407;49.882;10.920;2022-11-30T17:36:30;15.07;;;10.77;;
6739;SDS011;3407;49.882;10.920;2022-11-30T17:41:26;20.10;;;12.13;;
6739;SDS011;3407;49.882;10.920;2022-11-30T17:46:22;19.83;;;11.20;;
6739;SDS011;3407;49.882;10.920;2022-11-30T17:51:17;20.13;;;12.80;;
6739;SDS011;3407;49.882;10.920;2022-11-30T17:56:14;15.30;;;11.03;;
6739;SDS011;3407;49.882;10.920;2022-11-30T18:01:14;20.93;;;11.20;;
6739;SDS011;3407;49.882;10.920;2022-11-30T18:06:14;18.97;;;10.93;;
6739;SDS011;3407;49.882;10.920;2022-11-30T18:11:14;16.80;;;11.87;;
6739;SDS011;3407;49.882;10.920;2022-11-30T18:16:15;20.27;;;11.00;;
6739;SDS011;3407;49.882;10.920;2022-11-30T18:21:12;17.43;;;10.93;;
6739;SDS011;3407;49.882;10.920;2022-11-30T18:26:10;18.57;;;10.93;;
6739;SDS011;3407;49.882;10.920;2022-11-30T18:31:08;20.83;;;10.83;;
6739;SDS011;3407;49.882;10.920;2022-11-30T18:36:04;18.40;;;12.10;;
6739;SDS011;3407;49.882;10.920;2022-11-30T18:41:01;19.77;;;11.33;;
6739;SDS011;3407;49.882;10.920;2022-11-30T18:46:06;18.00;;;12.20;;
6739;SDS011;3407;49.882;10.920;2022-11-30T18:51:23;20.83;;;12.73;;
6739;SDS011;3407;49.882;10.920;2022-11-30T18:56:20;19.63;;;12.17;;
6739;SDS011;3407;49.882;10.920;2022-11-30T19:01:19;20.60;;;12.33;;
6739;SDS011;3407;49.882;10.920;2022-11-30T19:06:15;17.07;;;12.60;;
6739;SDS011;3407;49.882;10.920;2022-11-30T19:11:11;23.10;;;12.53;;
6739;SDS011;3407;49.882;10.920;2022-11-30T19:16:08;23.50;;;12.63;;
6739;SDS011;3407;49.882;10.920;2022-11-30T19:21:05;17.63;;;10.87;;
6739;SDS011;3407;49.882;10.920;2022-11-30T19:26:03;19.40;;;11.63;;
6739;SDS011;3407;49.882;10.920;2022-11-30T19:30:59;18.50;;;11.27;;
6739;SDS011;3407;49.882;10.920;2022-11-30T19:36:02;16.47;;;10.87;;
6739;SDS011;3407;49.882;10.920;2022-11-30T19:41:04;28.43;;;16.90;;
6739;SDS011;3407;49.882;10.920;2022-11-30T19:46:06;16.23;;;11.10;;
6739;SDS011;3407;49.882;10.920;2022-11-30T19:51:15;21.97;;;11.87;;
6739;SDS011;3407;49.882;10.920;2022-11-30T19:56:15;18.70;;;11.70;;
6739;SDS011;3407;49.882;10.920;2022-11-30T20:01:15;20.20;;;12.57;;
6739;SDS011;3407;49.882;10.920;2022-11-30T20:06:19;20.83;;;11.57;;
6739;SDS011;3407;49.882;10.920;2022-11-30T20:11:17;19.80;;;12.53;;
6739;SDS011;3407;49.882;10.920;2022-11-30T20:16:14;19.30;;;11.97;;
6739;SDS011;3407;49.882;10.920;2022-11-30T20:21:14;18.87;;;11.13;;
6739;SDS011;3407;49.882;10.920;2022-11-30T20:26:16;17.70;;;11.30;;
6739;SDS011;3407;49.882;10.920;2022-11-30T20:31:13;17.93;;;11.00;;
6739;SDS011;3407;49.882;10.920;2022-11-30T20:36:10;16.20;;;11.07;;
6739;SDS011;3407;49.882;10.920;2022-11-30T20:41:11;18.27;;;11.50;;
6739;SDS011;3407;49.882;10.920;2022-11-30T20:51:13;20.57;;;11.60;;
6739;SDS011;3407;49.882;10.920;2022-11-30T20:56:13;18.00;;;11.10;;
6739;SDS011;3407;49.882;10.920;2022-11-30T21:01:10;17.47;;;10.97;;
6739;SDS011;3407;49.882;10.920;2022-11-30T21:06:08;19.87;;;12.07;;
6739;SDS011;3407;49.882;10.920;2022-11-30T21:11:06;19.10;;;11.83;;
6739;SDS011;3407;49.882;10.920;2022-11-30T21:16:12;16.17;;;10.57;;
6739;SDS011;3407;49.882;10.920;2022-11-30T21:21:13;16.53;;;10.30;;
6739;SDS011;3407;49.882;10.920;2022-11-30T21:26:21;17.93;;;10.70;;
6739;SDS011;3407;49.882;10.920;2022-11-30T21:31:18;15.83;;;11.00;;
6739;SDS011;3407;49.882;10.920;2022-11-30T21:36:15;16.87;;;10.93;;
6739;SDS011;3407;49.882;10.920;2022-11-30T21:41:11;18.83;;;11.07;;
6739;SDS011;3407;49.882;10.920;2022-11-30T21:46:12;19.00;;;11.50;;
6739;SDS011;3407;49.882;10.920;2022-11-30T21:51:10;15.33;;;10.97;;
6739;SDS011;3407;49.882;10.920;2022-11-30T21:56:08;19.23;;;11.73;;
6739;SDS011;3407;49.882;10.920;2022-11-30T22:01:09;18.60;;;10.77;;
6739;SDS011;3407;49.882;10.920;2022-11-30T22:06:07;20.27;;;11.23;;
6739;SDS011;3407;49.882;10.920;2022-11-30T22:11:08;17.63;;;10.67;;
6739;SDS011;3407;49.882;10.920;2022-11-30T22:16:15;19.93;;;11.23;;
6739;SDS011;3407;49.882;10.920;2022-11-30T22:21:12;17.93;;;11.10;;
6739;SDS011;3407;49.882;10.920;2022-11-30T22:31:13;19.53;;;11.63;;
6739;SDS011;3407;49.882;10.920;2022-11-30T22:36:11;19.93;;;11.13;;
6739;SDS011;3407;49.882;10.920;2022-11-30T22:41:11;17.83;;;10.73;;
6739;SDS011;3407;49.882;10.920;2022-11-30T22:46:10;17.17;;;10.00;;
6739;SDS011;3407;49.882;10.920;2022-11-30T22:51:09;18.33;;;10.80;;
6739;SDS011;3407;49.882;10.920;2022-11-30T22:56:08;19.07;;;10.77;;
6739;SDS011;3407;49.882;10.920;2022-11-30T23:01:09;15.77;;;10.83;;
6739;SDS011;3407;49.882;10.920;2022-11-30T23:06:10;18.47;;;12.03;;
6739;SDS011;3407;49.882;10.920;2022-11-30T23:11:07;21.07;;;11.63;;
6739;SDS011;3407;49.882;10.920;2022-11-30T23:16:05;19.03;;;12.47;;
6739;SDS011;3407;49.882;10.920;2022-11-30T23:21:08;18.50;;;12.77;;
6739;SDS011;3407;49.882;10.920;2022-11-30T23:31:11;21.87;;;11.73;;
6739;SDS011;3407;49.882;10.920;2022-11-30T23:36:08;20.10;;;11.73;;
6739;SDS011;3407;49.882;10.920;2022-11-30T23:41:09;19.90;;;10.63;;
6739;SDS011;3407;49.882;10.920;2022-11-30T23:46:06;19.83;;;12.17;;
6739;SDS011;3407;49.882;10.920;2022-11-30T23:51:03;19.10;;;11.73;;
6739;SDS011;3407;49.882;10.920;2022-11-30T23:56:02;16.60;;;11.13;;
